Impacts METAR Board INFO
IDs:

KBOS - Boston/Logan Intl, MA, US

Updated at: 0245 UTC 15 Dec 2017
Potential Impact None Slight Moderate High
Time14/14Z 14/15Z 14/16Z 14/17Z 14/18Z 14/19Z 14/20Z 14/21Z 14/22Z 14/23Z 15/00Z 15/01Z 15/02Z
VIS10 10 10 10 10 10 10 10 10 10 10 10 10
CIG70 200 70 -- -- -- -- -- -- -- -- -- --
CoverOVCBKNOVCSCTFEWFEWFEWFEWFEWCLRCLRCLRCLR
FltCatVFRVFRVFRVFRVFRVFRVFRVFRVFRVFRVFRVFRVFR
WX--------------------------
WDir320310270280300290280290280290280260270
WSpd7 8 11 14 12 19 13 13 13 14 17 17 13
WGst-- -- -- 20 -- 26 22 -- 25 21 24 23 23
Raw hourly METARs
KBOS 141354Z 32007KT 10SM FEW050 OVC070 M05/M12 A2961 RMK AO2 SNE13 SLP027 P0000 T10501122
KBOS 141454Z 31008KT 10SM FEW065 FEW110 BKN200 M04/M13 A2963 RMK AO2 SLP034 60000 T10391128 53007
KBOS 141554Z 27011KT 10SM FEW048 OVC070 M03/M13 A2965 RMK AO2 SLP038 T10331133
KBOS 141654Z 28014G20KT 10SM FEW050 SCT080 SCT200 M03/M13 A2964 RMK AO2 SLP035 T10331133
KBOS 141754Z 30012KT 10SM FEW050 FEW200 M02/M13 A2965 RMK AO2 SLP039 60000 T10171133 11017 21056 52005
KBOS 141854Z 29019G26KT 10SM FEW050 FEW200 M01/M16 A2967 RMK AO2 PK WND 29026/1853 SLP045 T10111156
KBOS 141954Z 28013G22KT 10SM FEW045 M02/M16 A2970 RMK AO2 SLP056 T10171161
KBOS 142054Z 29013KT 10SM FEW045 M02/M16 A2974 RMK AO2 SLP072 T10221156 53033
KBOS 142154Z 28013G25KT 10SM FEW045 M03/M16 A2980 RMK AO2 SLP089 T10281156
KBOS 142254Z 29014G21KT 10SM CLR M03/M16 A2984 RMK AO2 SLP103 T10331156
KBOS 142354Z 28017G24KT 10SM CLR M04/M16 A2988 RMK AO2 SLP117 T10441161 11011 21044 51045
KBOS 150054Z 26017G23KT 10SM CLR M06/M17 A2992 RMK AO2 PK WND 29026/2356 SLP131 T10561167
KBOS 150154Z 27013G23KT 10SM CLR M06/M17 A2995 RMK AO2 SLP139 T10611172